sensor_id;sensor_type;location;lat;lon;timestamp;pressure;altitude;pressure_sealevel;temperature;humidity
21863;BME280;11096;51.338;12.524;2023-03-21T00:00:33;100300.41;;;7.19;nan
21863;BME280;11096;51.338;12.524;2023-03-21T00:02:59;100307.59;;;7.14;nan
21863;BME280;11096;51.338;12.524;2023-03-21T00:05:25;100310.22;;;7.13;nan
21863;BME280;11096;51.338;12.524;2023-03-21T00:07:50;100319.41;;;7.18;nan
21863;BME280;11096;51.338;12.524;2023-03-21T00:10:16;100313.06;;;7.08;nan
21863;BME280;11096;51.338;12.524;2023-03-21T00:12:41;100313.81;;;7.10;nan
21863;BME280;11096;51.338;12.524;2023-03-21T00:15:09;100313.41;;;7.18;nan
21863;BME280;11096;51.338;12.524;2023-03-21T00:17:36;100312.75;;;7.14;nan
21863;BME280;11096;51.338;12.524;2023-03-21T00:20:05;100312.22;;;7.07;nan
21863;BME280;11096;51.338;12.524;2023-03-21T00:22:35;100310.31;;;7.11;nan
21863;BME280;11096;51.338;12.524;2023-03-21T00:25:01;100309.56;;;7.09;nan
21863;BME280;11096;51.338;12.524;2023-03-21T00:27:26;100308.56;;;7.12;nan
21863;BME280;11096;51.338;12.524;2023-03-21T00:29:52;100314.66;;;7.10;nan
21863;BME280;11096;51.338;12.524;2023-03-21T00:32:19;100310.06;;;7.16;nan
21863;BME280;11096;51.338;12.524;2023-03-21T00:34:45;100305.81;;;7.15;nan
21863;BME280;11096;51.338;12.524;2023-03-21T00:37:11;100308.41;;;7.15;nan
21863;BME280;11096;51.338;12.524;2023-03-21T00:39:41;100308.25;;;7.18;nan
21863;BME280;11096;51.338;12.524;2023-03-21T00:42:06;100306.72;;;7.14;nan
21863;BME280;11096;51.338;12.524;2023-03-21T00:44:31;100304.00;;;7.17;nan
21863;BME280;11096;51.338;12.524;2023-03-21T00:47:02;100304.75;;;7.19;nan
21863;BME280;11096;51.338;12.524;2023-03-21T00:49:28;100306.34;;;7.21;nan
21863;BME280;11096;51.338;12.524;2023-03-21T00:51:58;100303.78;;;7.21;nan
21863;BME280;11096;51.338;12.524;2023-03-21T00:54:23;100296.66;;;7.25;nan
21863;BME280;11096;51.338;12.524;2023-03-21T00:56:49;100292.44;;;7.24;nan
21863;BME280;11096;51.338;12.524;2023-03-21T00:59:14;100302.50;;;7.28;nan
21863;BME280;11096;51.338;12.524;2023-03-21T01:01:40;100307.66;;;7.28;nan
21863;BME280;11096;51.338;12.524;2023-03-21T01:04:06;100300.00;;;7.27;nan
21863;BME280;11096;51.338;12.524;2023-03-21T01:06:37;100297.50;;;7.25;nan
21863;BME280;11096;51.338;12.524;2023-03-21T01:09:04;100298.31;;;7.26;nan
21863;BME280;11096;51.338;12.524;2023-03-21T01:11:30;100300.91;;;7.26;nan
21863;BME280;11096;51.338;12.524;2023-03-21T01:13:56;100291.50;;;7.25;nan
21863;BME280;11096;51.338;12.524;2023-03-21T01:16:23;100302.91;;;7.21;nan
21863;BME280;11096;51.338;12.524;2023-03-21T01:18:49;100297.25;;;7.14;nan
21863;BME280;11096;51.338;12.524;2023-03-21T01:21:15;100297.72;;;7.05;nan
21863;BME280;11096;51.338;12.524;2023-03-21T01:23:42;100298.53;;;7.05;nan
21863;BME280;11096;51.338;12.524;2023-03-21T01:26:09;100300.88;;;6.94;nan
21863;BME280;11096;51.338;12.524;2023-03-21T01:28:36;100297.41;;;6.94;nan
21863;BME280;11096;51.338;12.524;2023-03-21T01:31:04;100298.34;;;6.93;nan
21863;BME280;11096;51.338;12.524;2023-03-21T01:33:31;100299.19;;;6.93;nan
21863;BME280;11096;51.338;12.524;2023-03-21T01:35:57;100294.34;;;6.87;nan
21863;BME280;11096;51.338;12.524;2023-03-21T01:38:22;100295.34;;;6.84;nan
21863;BME280;11096;51.338;12.524;2023-03-21T01:40:48;100299.19;;;6.76;nan
21863;BME280;11096;51.338;12.524;2023-03-21T01:43:25;100292.28;;;6.76;nan
21863;BME280;11096;51.338;12.524;2023-03-21T01:48:32;100299.38;;;6.73;nan
21863;BME280;11096;51.338;12.524;2023-03-21T01:50:59;100300.78;;;6.78;nan
21863;BME280;11096;51.338;12.524;2023-03-21T01:53:26;100297.97;;;6.83;nan
21863;BME280;11096;51.338;12.524;2023-03-21T01:55:58;100303.38;;;6.78;nan
21863;BME280;11096;51.338;12.524;2023-03-21T01:58:26;100299.81;;;6.81;nan
21863;BME280;11096;51.338;12.524;2023-03-21T02:00:52;100294.56;;;6.82;nan
21863;BME280;11096;51.338;12.524;2023-03-21T02:03:19;100299.97;;;6.78;nan
21863;BME280;11096;51.338;12.524;2023-03-21T02:05:55;100299.97;;;6.78;nan
21863;BME280;11096;51.338;12.524;2023-03-21T02:08:25;100294.63;;;6.81;nan
21863;BME280;11096;51.338;12.524;2023-03-21T02:10:51;100292.91;;;6.64;nan
21863;BME280;11096;51.338;12.524;2023-03-21T02:13:17;100291.63;;;6.73;nan
21863;BME280;11096;51.338;12.524;2023-03-21T02:18:44;100295.41;;;6.65;nan
21863;BME280;11096;51.338;12.524;2023-03-21T02:24:12;100288.94;;;6.74;nan
21863;BME280;11096;51.338;12.524;2023-03-21T02:27:08;100280.69;;;6.68;nan
21863;BME280;11096;51.338;12.524;2023-03-21T02:35:41;100274.44;;;6.72;nan
21863;BME280;11096;51.338;12.524;2023-03-21T02:38:24;100274.91;;;6.62;nan
21863;BME280;11096;51.338;12.524;2023-03-21T02:41:04;100274.81;;;6.64;nan
21863;BME280;11096;51.338;12.524;2023-03-21T02:46:31;100270.50;;;6.64;nan
21863;BME280;11096;51.338;12.524;2023-03-21T02:49:16;100274.38;;;6.56;nan
21863;BME280;11096;51.338;12.524;2023-03-21T02:51:47;100269.22;;;6.56;nan
21863;BME280;11096;51.338;12.524;2023-03-21T02:54:16;100265.88;;;6.54;nan
21863;BME280;11096;51.338;12.524;2023-03-21T02:56:43;100269.66;;;6.47;nan
21863;BME280;11096;51.338;12.524;2023-03-21T02:59:10;100272.19;;;6.48;nan
21863;BME280;11096;51.338;12.524;2023-03-21T03:01:35;100268.84;;;6.46;nan
21863;BME280;11096;51.338;12.524;2023-03-21T03:04:01;100264.13;;;6.37;nan
21863;BME280;11096;51.338;12.524;2023-03-21T03:06:32;100264.50;;;6.47;nan
21863;BME280;11096;51.338;12.524;2023-03-21T03:11:42;100262.09;;;6.43;nan
21863;BME280;11096;51.338;12.524;2023-03-21T03:17:19;100262.16;;;6.42;nan
21863;BME280;11096;51.338;12.524;2023-03-21T03:20:16;100263.69;;;6.46;nan
21863;BME280;11096;51.338;12.524;2023-03-21T03:25:39;100256.38;;;6.37;nan
21863;BME280;11096;51.338;12.524;2023-03-21T03:28:07;100261.31;;;6.41;nan
21863;BME280;11096;51.338;12.524;2023-03-21T03:30:35;100257.22;;;6.37;nan
21863;BME280;11096;51.338;12.524;2023-03-21T03:33:02;100262.38;;;6.37;nan
21863;BME280;11096;51.338;12.524;2023-03-21T03:35:31;100256.88;;;6.45;nan
21863;BME280;11096;51.338;12.524;2023-03-21T03:37:59;100258.53;;;6.46;nan
21863;BME280;11096;51.338;12.524;2023-03-21T03:40:30;100261.03;;;6.48;nan
21863;BME280;11096;51.338;12.524;2023-03-21T03:43:05;100255.66;;;6.85;nan
21863;BME280;11096;51.338;12.524;2023-03-21T03:45:41;100260.03;;;6.50;nan
21863;BME280;11096;51.338;12.524;2023-03-21T03:48:20;100257.47;;;6.33;nan
21863;BME280;11096;51.338;12.524;2023-03-21T03:51:06;100251.44;;;6.32;nan
21863;BME280;11096;51.338;12.524;2023-03-21T03:53:42;100252.91;;;6.38;nan
21863;BME280;11096;51.338;12.524;2023-03-21T03:56:10;100255.50;;;6.38;nan
21863;BME280;11096;51.338;12.524;2023-03-21T03:58:36;100254.63;;;6.37;nan
21863;BME280;11096;51.338;12.524;2023-03-21T04:01:06;100247.88;;;6.35;nan
21863;BME280;11096;51.338;12.524;2023-03-21T04:03:33;100248.63;;;6.37;nan
21863;BME280;11096;51.338;12.524;2023-03-21T04:06:00;100244.56;;;6.33;nan
21863;BME280;11096;51.338;12.524;2023-03-21T04:08:25;100245.06;;;6.22;nan
21863;BME280;11096;51.338;12.524;2023-03-21T04:10:51;100242.59;;;6.20;nan
21863;BME280;11096;51.338;12.524;2023-03-21T04:13:16;100238.63;;;6.31;nan
21863;BME280;11096;51.338;12.524;2023-03-21T04:15:43;100241.38;;;6.28;nan
21863;BME280;11096;51.338;12.524;2023-03-21T04:18:09;100243.81;;;6.31;nan
21863;BME280;11096;51.338;12.524;2023-03-21T04:20:34;100247.16;;;6.33;nan
21863;BME280;11096;51.338;12.524;2023-03-21T04:23:00;100245.91;;;6.22;nan
21863;BME280;11096;51.338;12.524;2023-03-21T04:25:26;100244.78;;;6.28;nan
21863;BME280;11096;51.338;12.524;2023-03-21T04:27:53;100243.31;;;6.22;nan
21863;BME280;11096;51.338;12.524;2023-03-21T04:30:20;100237.81;;;6.30;nan
21863;BME280;11096;51.338;12.524;2023-03-21T04:32:45;100239.84;;;6.23;nan
21863;BME280;11096;51.338;12.524;2023-03-21T04:35:18;100241.81;;;6.36;nan
21863;BME280;11096;51.338;12.524;2023-03-21T04:37:44;100242.03;;;6.31;nan
21863;BME280;11096;51.338;12.524;2023-03-21T04:40:10;100245.78;;;6.43;nan
21863;BME280;11096;51.338;12.524;2023-03-21T04:42:36;100243.31;;;7.24;nan
21863;BME280;11096;51.338;12.524;2023-03-21T04:45:02;100243.69;;;7.00;nan
21863;BME280;11096;51.338;12.524;2023-03-21T04:47:28;100242.81;;;7.33;nan
21863;BME280;11096;51.338;12.524;2023-03-21T04:49:53;100236.09;;;7.92;nan
21863;BME280;11096;51.338;12.524;2023-03-21T04:52:19;100243.81;;;7.15;nan
21863;BME280;11096;51.338;12.524;2023-03-21T04:54:45;100238.22;;;7.06;nan
21863;BME280;11096;51.338;12.524;2023-03-21T04:57:10;100230.72;;;7.18;nan
21863;BME280;11096;51.338;12.524;2023-03-21T04:59:36;100234.47;;;7.28;nan
21863;BME280;11096;51.338;12.524;2023-03-21T05:02:01;100228.53;;;7.58;nan
21863;BME280;11096;51.338;12.524;2023-03-21T05:04:27;100236.53;;;7.53;nan
21863;BME280;11096;51.338;12.524;2023-03-21T05:06:53;100227.38;;;7.16;nan
21863;BME280;11096;51.338;12.524;2023-03-21T05:09:20;100228.28;;;7.78;nan
21863;BME280;11096;51.338;12.524;2023-03-21T05:11:47;100225.59;;;7.80;nan
21863;BME280;11096;51.338;12.524;2023-03-21T05:14:16;100218.84;;;7.93;nan
21863;BME280;11096;51.338;12.524;2023-03-21T05:16:43;100223.00;;;7.80;nan
21863;BME280;11096;51.338;12.524;2023-03-21T05:19:13;100220.53;;;7.78;nan
21863;BME280;11096;51.338;12.524;2023-03-21T05:21:39;100220.19;;;7.21;nan
21863;BME280;11096;51.338;12.524;2023-03-21T05:24:13;100221.06;;;6.72;nan
21863;BME280;11096;51.338;12.524;2023-03-21T05:26:41;100219.44;;;7.50;nan
21863;BME280;11096;51.338;12.524;2023-03-21T05:29:07;100215.09;;;7.03;nan
21863;BME280;11096;51.338;12.524;2023-03-21T05:31:33;100216.50;;;7.72;nan
21863;BME280;11096;51.338;12.524;2023-03-21T05:33:59;100211.19;;;8.06;nan
21863;BME280;11096;51.338;12.524;2023-03-21T05:36:24;100216.59;;;6.58;nan
21863;BME280;11096;51.338;12.524;2023-03-21T05:38:50;100230.44;;;6.40;nan
21863;BME280;11096;51.338;12.524;2023-03-21T05:41:16;100230.31;;;6.59;nan
21863;BME280;11096;51.338;12.524;2023-03-21T05:43:42;100224.66;;;6.35;nan
21863;BME280;11096;51.338;12.524;2023-03-21T05:46:09;100224.97;;;6.46;nan
21863;BME280;11096;51.338;12.524;2023-03-21T05:48:35;100228.31;;;6.48;nan
21863;BME280;11096;51.338;12.524;2023-03-21T05:51:01;100227.09;;;6.55;nan
21863;BME280;11096;51.338;12.524;2023-03-21T05:53:27;100233.75;;;6.59;nan
21863;BME280;11096;51.338;12.524;2023-03-21T05:55:52;100228.91;;;6.53;nan
21863;BME280;11096;51.338;12.524;2023-03-21T05:58:18;100225.09;;;6.60;nan
21863;BME280;11096;51.338;12.524;2023-03-21T06:00:43;100224.16;;;6.61;nan
21863;BME280;11096;51.338;12.524;2023-03-21T06:03:09;100221.19;;;6.69;nan
21863;BME280;11096;51.338;12.524;2023-03-21T06:05:34;100228.28;;;6.65;nan
21863;BME280;11096;51.338;12.524;2023-03-21T06:08:00;100225.38;;;6.72;nan
21863;BME280;11096;51.338;12.524;2023-03-21T06:10:25;100224.22;;;6.77;nan
21863;BME280;11096;51.338;12.524;2023-03-21T06:12:51;100229.28;;;6.79;nan
21863;BME280;11096;51.338;12.524;2023-03-21T06:15:16;100229.88;;;6.84;nan
21863;BME280;11096;51.338;12.524;2023-03-21T06:17:42;100229.47;;;6.76;nan
21863;BME280;11096;51.338;12.524;2023-03-21T06:20:08;100237.97;;;6.78;nan
21863;BME280;11096;51.338;12.524;2023-03-21T06:22:34;100231.28;;;6.74;nan
21863;BME280;11096;51.338;12.524;2023-03-21T06:25:00;100232.75;;;6.79;nan
21863;BME280;11096;51.338;12.524;2023-03-21T06:27:25;100225.06;;;6.78;nan
21863;BME280;11096;51.338;12.524;2023-03-21T06:29:51;100230.81;;;6.83;nan
21863;BME280;11096;51.338;12.524;2023-03-21T06:32:17;100233.69;;;6.94;nan
21863;BME280;11096;51.338;12.524;2023-03-21T06:34:42;100233.69;;;7.10;nan
21863;BME280;11096;51.338;12.524;2023-03-21T06:37:08;100238.88;;;7.26;nan
21863;BME280;11096;51.338;12.524;2023-03-21T06:39:33;100245.63;;;7.28;nan
21863;BME280;11096;51.338;12.524;2023-03-21T06:41:59;100242.97;;;7.30;nan
21863;BME280;11096;51.338;12.524;2023-03-21T06:44:25;100249.16;;;7.43;nan
21863;BME280;11096;51.338;12.524;2023-03-21T06:46:51;100257.75;;;7.44;nan
21863;BME280;11096;51.338;12.524;2023-03-21T06:49:17;100251.41;;;7.49;nan
21863;BME280;11096;51.338;12.524;2023-03-21T06:51:43;100254.94;;;7.48;nan
21863;BME280;11096;51.338;12.524;2023-03-21T06:54:09;100254.75;;;7.51;nan
21863;BME280;11096;51.338;12.524;2023-03-21T06:56:34;100250.41;;;7.52;nan
21863;BME280;11096;51.338;12.524;2023-03-21T06:59:00;100257.91;;;7.57;nan
21863;BME280;11096;51.338;12.524;2023-03-21T07:01:26;100251.56;;;7.62;nan
21863;BME280;11096;51.338;12.524;2023-03-21T07:03:52;100254.25;;;7.61;nan
21863;BME280;11096;51.338;12.524;2023-03-21T07:06:18;100250.56;;;7.65;nan
21863;BME280;11096;51.338;12.524;2023-03-21T07:08:44;100251.00;;;7.73;nan
21863;BME280;11096;51.338;12.524;2023-03-21T07:11:12;100247.16;;;7.64;nan
21863;BME280;11096;51.338;12.524;2023-03-21T07:13:37;100243.22;;;7.73;nan
21863;BME280;11096;51.338;12.524;2023-03-21T07:16:03;100241.13;;;7.80;nan
21863;BME280;11096;51.338;12.524;2023-03-21T07:18:28;100242.69;;;7.82;nan
21863;BME280;11096;51.338;12.524;2023-03-21T07:20:55;100238.84;;;7.89;nan
21863;BME280;11096;51.338;12.524;2023-03-21T07:23:22;100237.78;;;7.93;nan
21863;BME280;11096;51.338;12.524;2023-03-21T07:25:48;100233.34;;;7.95;nan
21863;BME280;11096;51.338;12.524;2023-03-21T07:28:15;100234.34;;;8.23;nan
21863;BME280;11096;51.338;12.524;2023-03-21T07:30:42;100236.03;;;8.38;nan
21863;BME280;11096;51.338;12.524;2023-03-21T07:33:08;100218.25;;;8.48;nan
21863;BME280;11096;51.338;12.524;2023-03-21T07:35:34;100222.34;;;8.52;nan
21863;BME280;11096;51.338;12.524;2023-03-21T07:38:01;100226.25;;;8.74;nan
21863;BME280;11096;51.338;12.524;2023-03-21T07:40:27;100221.97;;;8.73;nan
21863;BME280;11096;51.338;12.524;2023-03-21T07:42:52;100221.69;;;8.77;nan
21863;BME280;11096;51.338;12.524;2023-03-21T07:45:17;100212.97;;;8.78;nan
21863;BME280;11096;51.338;12.524;2023-03-21T07:47:48;100215.03;;;8.73;nan
21863;BME280;11096;51.338;12.524;2023-03-21T07:50:13;100216.97;;;8.84;nan
21863;BME280;11096;51.338;12.524;2023-03-21T07:52:39;100215.97;;;9.42;nan
21863;BME280;11096;51.338;12.524;2023-03-21T07:55:05;100209.53;;;9.89;nan
21863;BME280;11096;51.338;12.524;2023-03-21T07:57:31;100209.25;;;10.07;nan
21863;BME280;11096;51.338;12.524;2023-03-21T07:59:56;100212.91;;;9.77;nan
21863;BME280;11096;51.338;12.524;2023-03-21T08:02:22;100207.34;;;9.96;nan
21863;BME280;11096;51.338;12.524;2023-03-21T08:04:47;100206.31;;;9.99;nan
21863;BME280;11096;51.338;12.524;2023-03-21T08:07:13;100207.63;;;9.92;nan
21863;BME280;11096;51.338;12.524;2023-03-21T08:09:38;100210.66;;;9.85;nan
21863;BME280;11096;51.338;12.524;2023-03-21T08:12:04;100213.44;;;9.82;nan
21863;BME280;11096;51.338;12.524;2023-03-21T08:14:30;100211.78;;;9.94;nan
21863;BME280;11096;51.338;12.524;2023-03-21T08:16:55;100210.91;;;10.21;nan
21863;BME280;11096;51.338;12.524;2023-03-21T08:19:21;100213.78;;;10.30;nan
21863;BME280;11096;51.338;12.524;2023-03-21T08:21:47;100213.69;;;10.32;nan
21863;BME280;11096;51.338;12.524;2023-03-21T08:24:14;100208.38;;;10.34;nan
21863;BME280;11096;51.338;12.524;2023-03-21T08:26:40;100217.53;;;10.39;nan
21863;BME280;11096;51.338;12.524;2023-03-21T08:29:06;100204.63;;;10.50;nan
21863;BME280;11096;51.338;12.524;2023-03-21T08:31:31;100209.94;;;10.62;nan
21863;BME280;11096;51.338;12.524;2023-03-21T08:33:57;100210.63;;;11.02;nan
21863;BME280;11096;51.338;12.524;2023-03-21T08:36:22;100216.75;;;11.14;nan
21863;BME280;11096;51.338;12.524;2023-03-21T08:38:48;100207.31;;;11.61;nan
21863;BME280;11096;51.338;12.524;2023-03-21T08:41:18;100211.50;;;11.88;nan
21863;BME280;11096;51.338;12.524;2023-03-21T08:43:49;100221.03;;;11.39;nan
21863;BME280;11096;51.338;12.524;2023-03-21T08:46:15;100208.56;;;11.31;nan
21863;BME280;11096;51.338;12.524;2023-03-21T08:48:40;100206.94;;;11.30;nan
21863;BME280;11096;51.338;12.524;2023-03-21T08:51:06;100208.09;;;11.50;nan
21863;BME280;11096;51.338;12.524;2023-03-21T08:53:32;100212.03;;;11.56;nan
21863;BME280;11096;51.338;12.524;2023-03-21T08:55:57;100214.59;;;11.45;nan
21863;BME280;11096;51.338;12.524;2023-03-21T08:58:23;100212.34;;;11.27;nan
21863;BME280;11096;51.338;12.524;2023-03-21T09:00:48;100210.25;;;11.32;nan
21863;BME280;11096;51.338;12.524;2023-03-21T09:03:13;100214.00;;;11.28;nan
21863;BME280;11096;51.338;12.524;2023-03-21T09:05:39;100207.84;;;11.90;nan
21863;BME280;11096;51.338;12.524;2023-03-21T09:08:05;100204.78;;;12.32;nan
21863;BME280;11096;51.338;12.524;2023-03-21T09:10:31;100199.75;;;12.06;nan
21863;BME280;11096;51.338;12.524;2023-03-21T09:12:56;100207.75;;;11.92;nan
21863;BME280;11096;51.338;12.524;2023-03-21T09:15:26;100196.75;;;11.75;nan
21863;BME280;11096;51.338;12.524;2023-03-21T09:17:53;100206.09;;;11.54;nan
21863;BME280;11096;51.338;12.524;2023-03-21T09:20:21;100198.47;;;11.88;nan
21863;BME280;11096;51.338;12.524;2023-03-21T09:22:55;100197.44;;;12.37;nan
21863;BME280;11096;51.338;12.524;2023-03-21T09:25:21;100204.53;;;12.35;nan
21863;BME280;11096;51.338;12.524;2023-03-21T09:27:48;100208.81;;;12.36;nan
21863;BME280;11096;51.338;12.524;2023-03-21T09:30:15;100200.41;;;11.97;nan
21863;BME280;11096;51.338;12.524;2023-03-21T09:32:42;100206.59;;;11.59;nan
21863;BME280;11096;51.338;12.524;2023-03-21T09:35:13;100208.22;;;11.73;nan
21863;BME280;11096;51.338;12.524;2023-03-21T09:37:40;100205.09;;;11.44;nan
21863;BME280;11096;51.338;12.524;2023-03-21T09:40:14;100198.69;;;12.09;nan
21863;BME280;11096;51.338;12.524;2023-03-21T09:45:44;100186.81;;;13.62;nan
21863;BME280;11096;51.338;12.524;2023-03-21T09:48:21;100177.19;;;14.47;nan
21863;BME280;11096;51.338;12.524;2023-03-21T09:50:56;100179.91;;;14.56;nan
21863;BME280;11096;51.338;12.524;2023-03-21T09:53:29;100170.25;;;14.88;nan
21863;BME280;11096;51.338;12.524;2023-03-21T09:55:58;100176.97;;;14.80;nan
21863;BME280;11096;51.338;12.524;2023-03-21T09:58:36;100179.03;;;14.77;nan
21863;BME280;11096;51.338;12.524;2023-03-21T10:01:16;100173.22;;;15.04;nan
21863;BME280;11096;51.338;12.524;2023-03-21T10:04:01;100169.81;;;15.33;nan
21863;BME280;11096;51.338;12.524;2023-03-21T10:06:28;100164.53;;;15.13;nan
21863;BME280;11096;51.338;12.524;2023-03-21T10:09:06;100163.50;;;15.64;nan
21863;BME280;11096;51.338;12.524;2023-03-21T10:11:49;100153.47;;;17.11;nan
21863;BME280;11096;51.338;12.524;2023-03-21T10:14:28;100148.06;;;16.85;nan
21863;BME280;11096;51.338;12.524;2023-03-21T10:19:42;100140.00;;;18.30;nan
21863;BME280;11096;51.338;12.524;2023-03-21T10:22:11;100142.84;;;18.71;nan
21863;BME280;11096;51.338;12.524;2023-03-21T10:24:36;100126.25;;;20.11;nan
21863;BME280;11096;51.338;12.524;2023-03-21T10:27:03;100127.66;;;23.05;nan
21863;BME280;11096;51.338;12.524;2023-03-21T10:29:40;100123.09;;;22.33;nan
21863;BME280;11096;51.338;12.524;2023-03-21T10:32:13;100115.38;;;22.08;nan
21863;BME280;11096;51.338;12.524;2023-03-21T10:34:43;100124.25;;;19.31;nan
21863;BME280;11096;51.338;12.524;2023-03-21T10:37:10;100112.63;;;22.76;nan
21863;BME280;11096;51.338;12.524;2023-03-21T10:39:39;100097.59;;;25.81;nan
21863;BME280;11096;51.338;12.524;2023-03-21T10:42:05;100093.94;;;29.10;nan
21863;BME280;11096;51.338;12.524;2023-03-21T10:44:33;100089.56;;;26.80;nan
21863;BME280;11096;51.338;12.524;2023-03-21T10:47:07;100095.69;;;24.89;nan
21863;BME280;11096;51.338;12.524;2023-03-21T10:49:35;100089.91;;;26.90;nan
21863;BME280;11096;51.338;12.524;2023-03-21T10:52:07;100107.84;;;24.28;nan
21863;BME280;11096;51.338;12.524;2023-03-21T10:54:34;100094.13;;;26.01;nan
21863;BME280;11096;51.338;12.524;2023-03-21T10:57:15;100091.28;;;23.63;nan
21863;BME280;11096;51.338;12.524;2023-03-21T10:59:59;100094.53;;;26.69;nan
21863;BME280;11096;51.338;12.524;2023-03-21T11:02:29;100095.00;;;24.67;nan
21863;BME280;11096;51.338;12.524;2023-03-21T11:05:05;100085.16;;;21.50;nan
21863;BME280;11096;51.338;12.524;2023-03-21T11:07:31;100085.28;;;21.56;nan
21863;BME280;11096;51.338;12.524;2023-03-21T11:09:59;100079.69;;;22.19;nan
21863;BME280;11096;51.338;12.524;2023-03-21T11:12:32;100083.34;;;22.62;nan
21863;BME280;11096;51.338;12.524;2023-03-21T11:17:55;100070.00;;;25.42;nan
21863;BME280;11096;51.338;12.524;2023-03-21T11:20:21;100067.75;;;24.16;nan
21863;BME280;11096;51.338;12.524;2023-03-21T11:22:47;100062.38;;;25.06;nan
21863;BME280;11096;51.338;12.524;2023-03-21T11:25:36;100060.97;;;25.30;nan
21863;BME280;11096;51.338;12.524;2023-03-21T11:28:10;100045.41;;;26.45;nan
21863;BME280;11096;51.338;12.524;2023-03-21T11:30:36;100052.41;;;26.40;nan
21863;BME280;11096;51.338;12.524;2023-03-21T11:33:03;100044.91;;;27.82;nan
21863;BME280;11096;51.338;12.524;2023-03-21T11:35:37;100033.19;;;31.53;nan
21863;BME280;11096;51.338;12.524;2023-03-21T11:38:04;100034.50;;;31.17;nan
21863;BME280;11096;51.338;12.524;2023-03-21T11:40:35;100031.81;;;31.51;nan
21863;BME280;11096;51.338;12.524;2023-03-21T11:43:02;100034.47;;;30.26;nan
21863;BME280;11096;51.338;12.524;2023-03-21T11:45:33;100034.34;;;26.55;nan
21863;BME280;11096;51.338;12.524;2023-03-21T11:48:03;100031.06;;;27.92;nan
21863;BME280;11096;51.338;12.524;2023-03-21T11:50:36;100028.59;;;26.51;nan
21863;BME280;11096;51.338;12.524;2023-03-21T11:53:15;100033.66;;;24.61;nan
21863;BME280;11096;51.338;12.524;2023-03-21T12:01:34;100015.25;;;24.05;nan
21863;BME280;11096;51.338;12.524;2023-03-21T12:09:33;100006.09;;;24.69;nan
21863;BME280;11096;51.338;12.524;2023-03-21T12:14:40;99996.03;;;24.03;nan
21863;BME280;11096;51.338;12.524;2023-03-21T12:20:17;99996.38;;;21.85;nan
21863;BME280;11096;51.338;12.524;2023-03-21T12:23:25;99993.28;;;21.52;nan
21863;BME280;11096;51.338;12.524;2023-03-21T12:39:34;99977.00;;;19.61;nan
21863;BME280;11096;51.338;12.524;2023-03-21T12:42:18;99971.47;;;18.98;nan
21863;BME280;11096;51.338;12.524;2023-03-21T12:45:08;99977.06;;;18.28;nan
21863;BME280;11096;51.338;12.524;2023-03-21T12:47:40;99973.16;;;18.40;nan
21863;BME280;11096;51.338;12.524;2023-03-21T12:50:14;99969.16;;;18.28;nan
21863;BME280;11096;51.338;12.524;2023-03-21T12:52:46;99967.50;;;19.19;nan
21863;BME280;11096;51.338;12.524;2023-03-21T12:55:17;99966.84;;;19.25;nan
21863;BME280;11096;51.338;12.524;2023-03-21T12:57:48;99960.47;;;19.83;nan
21863;BME280;11096;51.338;12.524;2023-03-21T13:00:20;99955.78;;;20.41;nan
21863;BME280;11096;51.338;12.524;2023-03-21T13:03:12;99951.41;;;20.79;nan
21863;BME280;11096;51.338;12.524;2023-03-21T13:05:47;99952.31;;;19.45;nan
21863;BME280;11096;51.338;12.524;2023-03-21T13:10:46;99945.88;;;20.12;nan
21863;BME280;11096;51.338;12.524;2023-03-21T13:16:23;99929.50;;;20.94;nan
21863;BME280;11096;51.338;12.524;2023-03-21T13:27:04;99921.97;;;20.05;nan
21863;BME280;11096;51.338;12.524;2023-03-21T13:29:43;99922.34;;;19.55;nan
21863;BME280;11096;51.338;12.524;2023-03-21T13:32:24;99918.50;;;19.65;nan
21863;BME280;11096;51.338;12.524;2023-03-21T13:35:00;99919.75;;;19.94;nan
21863;BME280;11096;51.338;12.524;2023-03-21T13:37:33;99910.78;;;21.33;nan
21863;BME280;11096;51.338;12.524;2023-03-21T13:40:02;99912.06;;;20.38;nan
21863;BME280;11096;51.338;12.524;2023-03-21T13:42:34;99912.13;;;19.99;nan
21863;BME280;11096;51.338;12.524;2023-03-21T13:45:01;99910.88;;;19.79;nan
21863;BME280;11096;51.338;12.524;2023-03-21T13:50:35;99902.22;;;19.62;nan
21863;BME280;11096;51.338;12.524;2023-03-21T13:55:44;99898.72;;;19.78;nan
21863;BME280;11096;51.338;12.524;2023-03-21T13:58:33;99883.47;;;20.50;nan
21863;BME280;11096;51.338;12.524;2023-03-21T14:06:30;99890.59;;;19.40;nan
21863;BME280;11096;51.338;12.524;2023-03-21T14:08:56;99881.47;;;19.50;nan
21863;BME280;11096;51.338;12.524;2023-03-21T14:11:22;99885.88;;;18.61;nan
21863;BME280;11096;51.338;12.524;2023-03-21T14:13:48;99885.16;;;19.33;nan
21863;BME280;11096;51.338;12.524;2023-03-21T14:16:17;99880.59;;;19.19;nan
21863;BME280;11096;51.338;12.524;2023-03-21T14:18:45;99879.13;;;19.08;nan
21863;BME280;11096;51.338;12.524;2023-03-21T14:21:21;99881.91;;;18.65;nan
21863;BME280;11096;51.338;12.524;2023-03-21T14:23:58;99870.25;;;18.52;nan
21863;BME280;11096;51.338;12.524;2023-03-21T14:26:31;99861.81;;;18.23;nan
21863;BME280;11096;51.338;12.524;2023-03-21T14:28:58;99865.41;;;18.06;nan
21863;BME280;11096;51.338;12.524;2023-03-21T14:31:24;99861.00;;;17.72;nan
21863;BME280;11096;51.338;12.524;2023-03-21T14:33:52;99861.09;;;17.54;nan
21863;BME280;11096;51.338;12.524;2023-03-21T14:36:31;99859.31;;;17.55;nan
21863;BME280;11096;51.338;12.524;2023-03-21T14:39:11;99864.91;;;17.60;nan
21863;BME280;11096;51.338;12.524;2023-03-21T14:42:00;99856.91;;;17.35;nan
21863;BME280;11096;51.338;12.524;2023-03-21T14:44:40;99856.28;;;17.42;nan
21863;BME280;11096;51.338;12.524;2023-03-21T14:47:08;99848.78;;;17.21;nan